sensor_id;sensor_type;location;lat;lon;timestamp;P1;durP1;ratioP1;P2;durP2;ratioP2
12976;SDS011;6553;48.412;9.514;2023-10-19T00:00:04;4.63;;;4.30;;
12976;SDS011;6553;48.412;9.514;2023-10-19T00:05:17;3.72;;;3.42;;
12976;SDS011;6553;48.412;9.514;2023-10-19T00:07:45;3.47;;;3.17;;
12976;SDS011;6553;48.412;9.514;2023-10-19T00:10:11;3.88;;;3.47;;
12976;SDS011;6553;48.412;9.514;2023-10-19T00:12:42;3.53;;;3.22;;
12976;SDS011;6553;48.412;9.514;2023-10-19T00:15:09;4.28;;;3.97;;
12976;SDS011;6553;48.412;9.514;2023-10-19T00:17:37;4.30;;;3.90;;
12976;SDS011;6553;48.412;9.514;2023-10-19T00:20:05;4.30;;;3.90;;
12976;SDS011;6553;48.412;9.514;2023-10-19T00:22:52;3.88;;;3.58;;
12976;SDS011;6553;48.412;9.514;2023-10-19T00:25:18;3.83;;;3.47;;
12976;SDS011;6553;48.412;9.514;2023-10-19T00:27:48;3.38;;;3.08;;
12976;SDS011;6553;48.412;9.514;2023-10-19T00:30:14;4.05;;;3.53;;
12976;SDS011;6553;48.412;9.514;2023-10-19T00:32:43;3.47;;;3.17;;
12976;SDS011;6553;48.412;9.514;2023-10-19T00:35:11;4.70;;;3.53;;
12976;SDS011;6553;48.412;9.514;2023-10-19T00:37:53;3.70;;;3.40;;
12976;SDS011;6553;48.412;9.514;2023-10-19T00:40:23;4.15;;;3.67;;
12976;SDS011;6553;48.412;9.514;2023-10-19T00:43:03;3.60;;;3.30;;
12976;SDS011;6553;48.412;9.514;2023-10-19T00:45:35;4.70;;;3.65;;
12976;SDS011;6553;48.412;9.514;2023-10-19T00:48:07;3.95;;;3.60;;
12976;SDS011;6553;48.412;9.514;2023-10-19T00:50:36;3.70;;;3.40;;
12976;SDS011;6553;48.412;9.514;2023-10-19T00:53:03;3.40;;;3.10;;
12976;SDS011;6553;48.412;9.514;2023-10-19T00:55:34;4.03;;;3.50;;
12976;SDS011;6553;48.412;9.514;2023-10-19T00:58:01;3.45;;;3.10;;
12976;SDS011;6553;48.412;9.514;2023-10-19T01:00:34;3.90;;;3.60;;
12976;SDS011;6553;48.412;9.514;2023-10-19T01:03:10;3.65;;;3.20;;
12976;SDS011;6553;48.412;9.514;2023-10-19T01:05:42;3.33;;;3.03;;
12976;SDS011;6553;48.412;9.514;2023-10-19T01:08:13;3.80;;;3.50;;
12976;SDS011;6553;48.412;9.514;2023-10-19T01:10:57;3.60;;;3.30;;
12976;SDS011;6553;48.412;9.514;2023-10-19T01:13:24;3.75;;;3.45;;
12976;SDS011;6553;48.412;9.514;2023-10-19T01:15:54;3.60;;;3.30;;
12976;SDS011;6553;48.412;9.514;2023-10-19T01:18:20;3.17;;;2.97;;
12976;SDS011;6553;48.412;9.514;2023-10-19T01:20:47;3.50;;;3.20;;
12976;SDS011;6553;48.412;9.514;2023-10-19T01:23:15;3.13;;;2.92;;
12976;SDS011;6553;48.412;9.514;2023-10-19T01:25:48;3.85;;;3.25;;
12976;SDS011;6553;48.412;9.514;2023-10-19T01:28:26;3.58;;;3.28;;
12976;SDS011;6553;48.412;9.514;2023-10-19T01:31:12;3.47;;;3.17;;
12976;SDS011;6553;48.412;9.514;2023-10-19T01:33:58;3.03;;;2.83;;
12976;SDS011;6553;48.412;9.514;2023-10-19T01:36:34;3.08;;;2.75;;
12976;SDS011;6553;48.412;9.514;2023-10-19T01:39:07;3.05;;;2.85;;
12976;SDS011;6553;48.412;9.514;2023-10-19T01:41:37;3.67;;;2.90;;
12976;SDS011;6553;48.412;9.514;2023-10-19T01:44:06;3.25;;;2.95;;
12976;SDS011;6553;48.412;9.514;2023-10-19T01:46:32;3.40;;;2.95;;
12976;SDS011;6553;48.412;9.514;2023-10-19T01:49:01;3.00;;;2.80;;
12976;SDS011;6553;48.412;9.514;2023-10-19T01:51:29;2.75;;;2.55;;
12976;SDS011;6553;48.412;9.514;2023-10-19T01:54:04;2.90;;;2.70;;
12976;SDS011;6553;48.412;9.514;2023-10-19T01:56:32;5.28;;;2.90;;
12976;SDS011;6553;48.412;9.514;2023-10-19T01:59:04;3.30;;;3.00;;
12976;SDS011;6553;48.412;9.514;2023-10-19T02:01:30;3.08;;;2.80;;
12976;SDS011;6553;48.412;9.514;2023-10-19T02:04:01;2.55;;;2.35;;
12976;SDS011;6553;48.412;9.514;2023-10-19T02:06:31;2.83;;;2.63;;
12976;SDS011;6553;48.412;9.514;2023-10-19T02:08:59;2.90;;;2.70;;
12976;SDS011;6553;48.412;9.514;2023-10-19T02:11:47;2.47;;;2.28;;
12976;SDS011;6553;48.412;9.514;2023-10-19T02:14:18;2.90;;;2.70;;
12976;SDS011;6553;48.412;9.514;2023-10-19T02:16:45;3.38;;;3.00;;
12976;SDS011;6553;48.412;9.514;2023-10-19T02:19:18;2.90;;;2.70;;
12976;SDS011;6553;48.412;9.514;2023-10-19T02:21:47;2.88;;;2.67;;
12976;SDS011;6553;48.412;9.514;2023-10-19T02:24:18;3.17;;;2.60;;
12976;SDS011;6553;48.412;9.514;2023-10-19T02:26:45;3.15;;;2.88;;
12976;SDS011;6553;48.412;9.514;2023-10-19T02:29:16;2.90;;;2.70;;
12976;SDS011;6553;48.412;9.514;2023-10-19T02:31:42;2.55;;;2.35;;
12976;SDS011;6553;48.412;9.514;2023-10-19T02:34:09;3.00;;;2.80;;
12976;SDS011;6553;48.412;9.514;2023-10-19T02:36:40;3.10;;;2.90;;
12976;SDS011;6553;48.412;9.514;2023-10-19T02:39:08;3.17;;;2.97;;
12976;SDS011;6553;48.412;9.514;2023-10-19T02:41:45;2.88;;;2.67;;
12976;SDS011;6553;48.412;9.514;2023-10-19T02:44:19;2.88;;;2.67;;
12976;SDS011;6553;48.412;9.514;2023-10-19T02:46:51;3.00;;;2.70;;
12976;SDS011;6553;48.412;9.514;2023-10-19T02:49:23;2.65;;;2.45;;
12976;SDS011;6553;48.412;9.514;2023-10-19T02:51:52;2.95;;;2.75;;
12976;SDS011;6553;48.412;9.514;2023-10-19T02:54:22;2.70;;;2.50;;
12976;SDS011;6553;48.412;9.514;2023-10-19T02:56:50;2.75;;;2.53;;
12976;SDS011;6553;48.412;9.514;2023-10-19T02:59:24;2.30;;;2.10;;
12976;SDS011;6553;48.412;9.514;2023-10-19T03:01:54;3.00;;;2.80;;
12976;SDS011;6553;48.412;9.514;2023-10-19T03:04:49;2.85;;;2.60;;
12976;SDS011;6553;48.412;9.514;2023-10-19T03:07:15;2.80;;;2.60;;
12976;SDS011;6553;48.412;9.514;2023-10-19T03:09:40;3.03;;;2.63;;
12976;SDS011;6553;48.412;9.514;2023-10-19T03:12:20;2.55;;;2.35;;
12976;SDS011;6553;48.412;9.514;2023-10-19T03:14:50;2.63;;;2.42;;
12976;SDS011;6553;48.412;9.514;2023-10-19T03:17:17;2.60;;;2.40;;
12976;SDS011;6553;48.412;9.514;2023-10-19T03:19:43;2.72;;;2.53;;
12976;SDS011;6553;48.412;9.514;2023-10-19T03:22:09;2.60;;;2.40;;
12976;SDS011;6553;48.412;9.514;2023-10-19T03:24:36;2.20;;;2.10;;
12976;SDS011;6553;48.412;9.514;2023-10-19T03:27:09;2.53;;;2.33;;
12976;SDS011;6553;48.412;9.514;2023-10-19T03:29:46;2.75;;;2.55;;
12976;SDS011;6553;48.412;9.514;2023-10-19T03:32:33;2.70;;;2.50;;
12976;SDS011;6553;48.412;9.514;2023-10-19T03:35:00;2.30;;;2.13;;
12976;SDS011;6553;48.412;9.514;2023-10-19T03:37:26;2.78;;;2.50;;
12976;SDS011;6553;48.412;9.514;2023-10-19T03:39:56;2.60;;;2.40;;
12976;SDS011;6553;48.412;9.514;2023-10-19T03:42:22;3.67;;;2.40;;
12976;SDS011;6553;48.412;9.514;2023-10-19T03:44:57;2.25;;;2.05;;
12976;SDS011;6553;48.412;9.514;2023-10-19T03:47:22;2.28;;;2.17;;
12976;SDS011;6553;48.412;9.514;2023-10-19T03:50:00;2.47;;;2.28;;
12976;SDS011;6553;48.412;9.514;2023-10-19T03:52:31;2.65;;;2.30;;
12976;SDS011;6553;48.412;9.514;2023-10-19T03:55:03;2.40;;;2.20;;
12976;SDS011;6553;48.412;9.514;2023-10-19T03:57:36;2.40;;;2.20;;
12976;SDS011;6553;48.412;9.514;2023-10-19T04:00:07;2.72;;;2.53;;
12976;SDS011;6553;48.412;9.514;2023-10-19T04:02:40;2.28;;;2.17;;
12976;SDS011;6553;48.412;9.514;2023-10-19T04:05:07;2.22;;;2.03;;
12976;SDS011;6553;48.412;9.514;2023-10-19T04:07:40;2.33;;;2.13;;
12976;SDS011;6553;48.412;9.514;2023-10-19T04:10:07;2.30;;;2.20;;
12976;SDS011;6553;48.412;9.514;2023-10-19T04:12:42;2.33;;;2.22;;
12976;SDS011;6553;48.412;9.514;2023-10-19T04:15:09;2.35;;;2.15;;
12976;SDS011;6553;48.412;9.514;2023-10-19T04:17:39;2.33;;;2.15;;
12976;SDS011;6553;48.412;9.514;2023-10-19T04:20:06;2.53;;;2.33;;
12976;SDS011;6553;48.412;9.514;2023-10-19T04:22:48;2.58;;;2.38;;
12976;SDS011;6553;48.412;9.514;2023-10-19T04:25:15;2.92;;;2.33;;
12976;SDS011;6553;48.412;9.514;2023-10-19T04:27:46;2.33;;;2.13;;
12976;SDS011;6553;48.412;9.514;2023-10-19T04:30:14;2.25;;;2.10;;
12976;SDS011;6553;48.412;9.514;2023-10-19T04:32:44;2.20;;;2.10;;
12976;SDS011;6553;48.412;9.514;2023-10-19T04:35:11;2.45;;;2.25;;
12976;SDS011;6553;48.412;9.514;2023-10-19T04:37:47;2.60;;;2.40;;
12976;SDS011;6553;48.412;9.514;2023-10-19T04:40:19;2.70;;;2.50;;
12976;SDS011;6553;48.412;9.514;2023-10-19T04:42:48;2.72;;;2.53;;
12976;SDS011;6553;48.412;9.514;2023-10-19T04:45:18;2.30;;;2.10;;
12976;SDS011;6553;48.412;9.514;2023-10-19T04:47:44;2.67;;;2.47;;
12976;SDS011;6553;48.412;9.514;2023-10-19T04:50:11;2.55;;;2.35;;
12976;SDS011;6553;48.412;9.514;2023-10-19T04:52:37;2.28;;;2.08;;
12976;SDS011;6553;48.412;9.514;2023-10-19T04:55:04;2.50;;;2.30;;
12976;SDS011;6553;48.412;9.514;2023-10-19T04:57:30;2.35;;;2.05;;
12976;SDS011;6553;48.412;9.514;2023-10-19T04:59:56;2.42;;;2.22;;
12976;SDS011;6553;48.412;9.514;2023-10-19T05:02:22;2.10;;;2.00;;
12976;SDS011;6553;48.412;9.514;2023-10-19T05:04:49;2.17;;;2.08;;
12976;SDS011;6553;48.412;9.514;2023-10-19T05:07:15;2.30;;;2.20;;
12976;SDS011;6553;48.412;9.514;2023-10-19T05:09:44;2.60;;;2.40;;
12976;SDS011;6553;48.412;9.514;2023-10-19T05:12:11;2.67;;;2.47;;
12976;SDS011;6553;48.412;9.514;2023-10-19T05:14:39;2.40;;;2.20;;
12976;SDS011;6553;48.412;9.514;2023-10-19T05:17:06;2.55;;;2.35;;
12976;SDS011;6553;48.412;9.514;2023-10-19T05:19:37;2.30;;;2.10;;
12976;SDS011;6553;48.412;9.514;2023-10-19T05:22:05;2.55;;;2.35;;
12976;SDS011;6553;48.412;9.514;2023-10-19T05:24:33;3.15;;;2.42;;
12976;SDS011;6553;48.412;9.514;2023-10-19T05:26:59;3.30;;;2.70;;
12976;SDS011;6553;48.412;9.514;2023-10-19T05:29:25;3.40;;;2.47;;
12976;SDS011;6553;48.412;9.514;2023-10-19T05:31:51;2.80;;;2.50;;
12976;SDS011;6553;48.412;9.514;2023-10-19T05:34:19;3.03;;;2.72;;
12976;SDS011;6553;48.412;9.514;2023-10-19T05:36:46;3.70;;;2.58;;
12976;SDS011;6553;48.412;9.514;2023-10-19T05:39:14;3.00;;;2.80;;
12976;SDS011;6553;48.412;9.514;2023-10-19T05:41:41;3.00;;;2.50;;
12976;SDS011;6553;48.412;9.514;2023-10-19T05:44:07;2.80;;;2.60;;
12976;SDS011;6553;48.412;9.514;2023-10-19T05:46:33;3.65;;;2.70;;
12976;SDS011;6553;48.412;9.514;2023-10-19T05:48:59;2.85;;;2.35;;
12976;SDS011;6553;48.412;9.514;2023-10-19T05:51:27;2.70;;;2.40;;
12976;SDS011;6553;48.412;9.514;2023-10-19T05:53:53;2.97;;;2.67;;
12976;SDS011;6553;48.412;9.514;2023-10-19T05:56:26;2.60;;;2.22;;
12976;SDS011;6553;48.412;9.514;2023-10-19T05:58:59;2.60;;;2.40;;
12976;SDS011;6553;48.412;9.514;2023-10-19T06:01:26;2.92;;;2.40;;
12976;SDS011;6553;48.412;9.514;2023-10-19T06:03:52;3.10;;;2.40;;
12976;SDS011;6553;48.412;9.514;2023-10-19T06:06:18;2.90;;;2.55;;
12976;SDS011;6553;48.412;9.514;2023-10-19T06:08:45;3.33;;;2.30;;
12976;SDS011;6553;48.412;9.514;2023-10-19T06:11:11;2.78;;;2.25;;
12976;SDS011;6553;48.412;9.514;2023-10-19T06:13:37;2.83;;;2.63;;
12976;SDS011;6553;48.412;9.514;2023-10-19T06:16:02;4.38;;;2.63;;
12976;SDS011;6553;48.412;9.514;2023-10-19T06:18:29;2.72;;;2.53;;
12976;SDS011;6553;48.412;9.514;2023-10-19T06:20:55;3.70;;;2.40;;
12976;SDS011;6553;48.412;9.514;2023-10-19T06:23:21;3.28;;;2.97;;
12976;SDS011;6553;48.412;9.514;2023-10-19T06:25:47;2.85;;;2.28;;
12976;SDS011;6553;48.412;9.514;2023-10-19T06:28:13;3.00;;;2.40;;
12976;SDS011;6553;48.412;9.514;2023-10-19T06:30:40;3.00;;;2.50;;
12976;SDS011;6553;48.412;9.514;2023-10-19T06:33:06;3.22;;;2.92;;
12976;SDS011;6553;48.412;9.514;2023-10-19T06:35:32;3.00;;;2.60;;
12976;SDS011;6553;48.412;9.514;2023-10-19T06:37:59;3.00;;;2.75;;
12976;SDS011;6553;48.412;9.514;2023-10-19T06:40:26;2.78;;;2.58;;
12976;SDS011;6553;48.412;9.514;2023-10-19T06:42:54;2.60;;;2.40;;
12976;SDS011;6553;48.412;9.514;2023-10-19T06:45:21;2.50;;;2.30;;
12976;SDS011;6553;48.412;9.514;2023-10-19T06:47:47;3.10;;;2.60;;
12976;SDS011;6553;48.412;9.514;2023-10-19T06:50:21;2.47;;;2.28;;
12976;SDS011;6553;48.412;9.514;2023-10-19T06:52:48;4.25;;;2.92;;
12976;SDS011;6553;48.412;9.514;2023-10-19T06:55:15;2.85;;;2.58;;
12976;SDS011;6553;48.412;9.514;2023-10-19T06:57:50;2.60;;;2.40;;
12976;SDS011;6553;48.412;9.514;2023-10-19T07:00:18;2.70;;;2.50;;
12976;SDS011;6553;48.412;9.514;2023-10-19T07:02:48;2.63;;;2.42;;
12976;SDS011;6553;48.412;9.514;2023-10-19T07:05:18;3.38;;;2.55;;
12976;SDS011;6553;48.412;9.514;2023-10-19T07:07:54;4.20;;;2.22;;
12976;SDS011;6553;48.412;9.514;2023-10-19T07:10:22;3.05;;;2.80;;
12976;SDS011;6553;48.412;9.514;2023-10-19T07:12:51;3.13;;;2.72;;
12976;SDS011;6553;48.412;9.514;2023-10-19T07:15:19;3.85;;;3.45;;
12976;SDS011;6553;48.412;9.514;2023-10-19T07:17:47;4.03;;;3.63;;
12976;SDS011;6553;48.412;9.514;2023-10-19T07:20:17;4.85;;;3.90;;
12976;SDS011;6553;48.412;9.514;2023-10-19T07:23:03;4.60;;;3.40;;
12976;SDS011;6553;48.412;9.514;2023-10-19T07:25:43;3.75;;;3.05;;
12976;SDS011;6553;48.412;9.514;2023-10-19T07:28:19;3.72;;;2.80;;
12976;SDS011;6553;48.412;9.514;2023-10-19T07:30:47;3.72;;;3.40;;
12976;SDS011;6553;48.412;9.514;2023-10-19T07:33:13;4.40;;;3.30;;
12976;SDS011;6553;48.412;9.514;2023-10-19T07:35:42;4.10;;;3.40;;
12976;SDS011;6553;48.412;9.514;2023-10-19T07:38:12;3.80;;;3.38;;
12976;SDS011;6553;48.412;9.514;2023-10-19T07:40:40;3.65;;;3.30;;
12976;SDS011;6553;48.412;9.514;2023-10-19T07:43:06;4.65;;;3.28;;
12976;SDS011;6553;48.412;9.514;2023-10-19T07:45:33;3.65;;;3.22;;
12976;SDS011;6553;48.412;9.514;2023-10-19T07:47:59;3.97;;;3.42;;
12976;SDS011;6553;48.412;9.514;2023-10-19T07:50:31;3.80;;;3.50;;
12976;SDS011;6553;48.412;9.514;2023-10-19T07:52:59;3.50;;;3.20;;
12976;SDS011;6553;48.412;9.514;2023-10-19T07:55:24;3.72;;;3.28;;
12976;SDS011;6553;48.412;9.514;2023-10-19T07:57:50;4.03;;;3.63;;
12976;SDS011;6553;48.412;9.514;2023-10-19T08:00:18;3.85;;;3.45;;
12976;SDS011;6553;48.412;9.514;2023-10-19T08:02:46;4.93;;;3.60;;
12976;SDS011;6553;48.412;9.514;2023-10-19T08:05:16;3.58;;;3.22;;
12976;SDS011;6553;48.412;9.514;2023-10-19T08:07:46;4.80;;;3.67;;
12976;SDS011;6553;48.412;9.514;2023-10-19T08:10:12;4.80;;;3.42;;
12976;SDS011;6553;48.412;9.514;2023-10-19T08:12:43;4.05;;;3.05;;
12976;SDS011;6553;48.412;9.514;2023-10-19T08:15:13;3.88;;;3.45;;
12976;SDS011;6553;48.412;9.514;2023-10-19T08:17:43;3.72;;;3.03;;
12976;SDS011;6553;48.412;9.514;2023-10-19T08:20:12;3.38;;;3.08;;
12976;SDS011;6553;48.412;9.514;2023-10-19T08:22:48;4.03;;;3.13;;
12976;SDS011;6553;48.412;9.514;2023-10-19T08:25:18;3.88;;;3.00;;
12976;SDS011;6553;48.412;9.514;2023-10-19T08:27:46;6.07;;;3.30;;
12976;SDS011;6553;48.412;9.514;2023-10-19T08:30:18;3.13;;;2.83;;
12976;SDS011;6553;48.412;9.514;2023-10-19T08:32:46;4.13;;;2.60;;
12976;SDS011;6553;48.412;9.514;2023-10-19T08:35:15;3.22;;;2.92;;
12976;SDS011;6553;48.412;9.514;2023-10-19T08:37:54;3.45;;;3.00;;
12976;SDS011;6553;48.412;9.514;2023-10-19T08:40:22;3.00;;;2.70;;
12976;SDS011;6553;48.412;9.514;2023-10-19T08:42:52;3.15;;;2.85;;
12976;SDS011;6553;48.412;9.514;2023-10-19T08:45:18;3.53;;;3.20;;
12976;SDS011;6553;48.412;9.514;2023-10-19T08:50:27;3.65;;;2.95;;
12976;SDS011;6553;48.412;9.514;2023-10-19T08:52:55;3.20;;;2.90;;
12976;SDS011;6553;48.412;9.514;2023-10-19T08:55:24;3.22;;;2.92;;
12976;SDS011;6553;48.412;9.514;2023-10-19T08:57:50;3.20;;;2.75;;
12976;SDS011;6553;48.412;9.514;2023-10-19T09:00:18;3.70;;;2.88;;
12976;SDS011;6553;48.412;9.514;2023-10-19T09:02:44;3.25;;;2.95;;
12976;SDS011;6553;48.412;9.514;2023-10-19T09:05:11;3.67;;;2.58;;
12976;SDS011;6553;48.412;9.514;2023-10-19T09:07:54;3.17;;;2.70;;
12976;SDS011;6553;48.412;9.514;2023-10-19T09:10:23;2.83;;;2.53;;
12976;SDS011;6553;48.412;9.514;2023-10-19T09:12:59;2.60;;;2.38;;
12976;SDS011;6553;48.412;9.514;2023-10-19T09:15:27;3.03;;;2.70;;
12976;SDS011;6553;48.412;9.514;2023-10-19T09:17:57;2.83;;;2.60;;
12976;SDS011;6553;48.412;9.514;2023-10-19T09:20:36;2.50;;;2.30;;
12976;SDS011;6553;48.412;9.514;2023-10-19T09:23:03;2.45;;;2.25;;
12976;SDS011;6553;48.412;9.514;2023-10-19T09:25:28;3.00;;;2.40;;
12976;SDS011;6553;48.412;9.514;2023-10-19T09:27:54;2.40;;;2.20;;
12976;SDS011;6553;48.412;9.514;2023-10-19T09:30:20;2.30;;;2.17;;
12976;SDS011;6553;48.412;9.514;2023-10-19T09:32:50;2.55;;;2.30;;
12976;SDS011;6553;48.412;9.514;2023-10-19T09:35:19;2.35;;;2.13;;
12976;SDS011;6553;48.412;9.514;2023-10-19T09:37:45;2.67;;;2.47;;
12976;SDS011;6553;48.412;9.514;2023-10-19T09:40:12;2.58;;;2.08;;
12976;SDS011;6553;48.412;9.514;2023-10-19T09:42:40;2.25;;;2.05;;
12976;SDS011;6553;48.412;9.514;2023-10-19T09:45:11;2.17;;;1.98;;
12976;SDS011;6553;48.412;9.514;2023-10-19T09:47:43;2.53;;;2.33;;
12976;SDS011;6553;48.412;9.514;2023-10-19T09:50:15;2.50;;;2.30;;
12976;SDS011;6553;48.412;9.514;2023-10-19T09:52:40;2.63;;;2.38;;
12976;SDS011;6553;48.412;9.514;2023-10-19T09:57:58;2.08;;;1.98;;
12976;SDS011;6553;48.412;9.514;2023-10-19T10:00:45;2.22;;;2.03;;
12976;SDS011;6553;48.412;9.514;2023-10-19T10:06:28;2.30;;;2.10;;
12976;SDS011;6553;48.412;9.514;2023-10-19T10:08:56;2.40;;;2.20;;
12976;SDS011;6553;48.412;9.514;2023-10-19T10:11:26;3.38;;;2.35;;
12976;SDS011;6553;48.412;9.514;2023-10-19T10:13:54;2.05;;;1.95;;
12976;SDS011;6553;48.412;9.514;2023-10-19T10:16:22;2.95;;;2.30;;
12976;SDS011;6553;48.412;9.514;2023-10-19T10:18:56;3.15;;;2.00;;
12976;SDS011;6553;48.412;9.514;2023-10-19T10:21:27;2.15;;;2.00;;
12976;SDS011;6553;48.412;9.514;2023-10-19T10:23:55;2.50;;;1.85;;
12976;SDS011;6553;48.412;9.514;2023-10-19T10:26:28;2.30;;;2.10;;
12976;SDS011;6553;48.412;9.514;2023-10-19T10:31:35;2.05;;;1.80;;
12976;SDS011;6553;48.412;9.514;2023-10-19T10:34:08;2.15;;;1.95;;
12976;SDS011;6553;48.412;9.514;2023-10-19T10:39:27;2.40;;;2.20;;
12976;SDS011;6553;48.412;9.514;2023-10-19T10:41:59;2.20;;;2.05;;
12976;SDS011;6553;48.412;9.514;2023-10-19T10:44:40;2.10;;;1.90;;
12976;SDS011;6553;48.412;9.514;2023-10-19T10:47:10;2.17;;;1.98;;
12976;SDS011;6553;48.412;9.514;2023-10-19T10:49:48;2.10;;;1.90;;
12976;SDS011;6553;48.412;9.514;2023-10-19T10:54:55;1.90;;;1.80;;
12976;SDS011;6553;48.412;9.514;2023-10-19T10:57:22;1.80;;;1.70;;
12976;SDS011;6553;48.412;9.514;2023-10-19T11:00:00;2.20;;;2.00;;
12976;SDS011;6553;48.412;9.514;2023-10-19T11:02:58;2.03;;;1.83;;
12976;SDS011;6553;48.412;9.514;2023-10-19T11:05:26;2.00;;;1.90;;
12976;SDS011;6553;48.412;9.514;2023-10-19T11:08:02;2.13;;;2.03;;
12976;SDS011;6553;48.412;9.514;2023-10-19T11:10:38;2.00;;;1.80;;
12976;SDS011;6553;48.412;9.514;2023-10-19T11:13:08;2.30;;;2.10;;
12976;SDS011;6553;48.412;9.514;2023-10-19T11:15:37;1.52;;;1.42;;
12976;SDS011;6553;48.412;9.514;2023-10-19T11:18:12;2.17;;;1.80;;
12976;SDS011;6553;48.412;9.514;2023-10-19T11:21:03;2.38;;;1.92;;
12976;SDS011;6553;48.412;9.514;2023-10-19T11:26:12;1.90;;;1.70;;
12976;SDS011;6553;48.412;9.514;2023-10-19T11:28:40;1.70;;;1.60;;
12976;SDS011;6553;48.412;9.514;2023-10-19T11:31:19;2.05;;;1.85;;
12976;SDS011;6553;48.412;9.514;2023-10-19T11:33:53;1.83;;;1.73;;
12976;SDS011;6553;48.412;9.514;2023-10-19T11:36:23;2.10;;;1.90;;
12976;SDS011;6553;48.412;9.514;2023-10-19T11:38:50;3.42;;;2.30;;
12976;SDS011;6553;48.412;9.514;2023-10-19T11:41:18;2.97;;;2.15;;
12976;SDS011;6553;48.412;9.514;2023-10-19T11:43:45;2.33;;;2.13;;
12976;SDS011;6553;48.412;9.514;2023-10-19T11:46:12;3.33;;;2.55;;
12976;SDS011;6553;48.412;9.514;2023-10-19T11:48:39;3.13;;;2.50;;
12976;SDS011;6553;48.412;9.514;2023-10-19T11:51:07;3.08;;;2.50;;
12976;SDS011;6553;48.412;9.514;2023-10-19T11:53:36;2.85;;;2.50;;
12976;SDS011;6553;48.412;9.514;2023-10-19T11:56:04;4.40;;;2.60;;
12976;SDS011;6553;48.412;9.514;2023-10-19T11:58:36;3.88;;;2.88;;
12976;SDS011;6553;48.412;9.514;2023-10-19T12:01:05;6.28;;;2.78;;
12976;SDS011;6553;48.412;9.514;2023-10-19T12:03:36;3.65;;;2.75;;
12976;SDS011;6553;48.412;9.514;2023-10-19T12:06:04;4.90;;;3.05;;
12976;SDS011;6553;48.412;9.514;2023-10-19T12:08:35;3.60;;;2.60;;
12976;SDS011;6553;48.412;9.514;2023-10-19T12:11:03;4.05;;;2.92;;
12976;SDS011;6553;48.412;9.514;2023-10-19T12:13:40;3.47;;;2.88;;
12976;SDS011;6553;48.412;9.514;2023-10-19T12:16:10;4.65;;;2.75;;
12976;SDS011;6553;48.412;9.514;2023-10-19T12:18:43;4.30;;;2.80;;
12976;SDS011;6553;48.412;9.514;2023-10-19T12:21:09;3.42;;;2.72;;
12976;SDS011;6553;48.412;9.514;2023-10-19T12:23:43;4.05;;;2.95;;
12976;SDS011;6553;48.412;9.514;2023-10-19T12:26:09;3.97;;;3.10;;
12976;SDS011;6553;48.412;9.514;2023-10-19T12:28:39;4.03;;;2.60;;
12976;SDS011;6553;48.412;9.514;2023-10-19T12:31:06;3.53;;;2.58;;
12976;SDS011;6553;48.412;9.514;2023-10-19T12:33:36;3.60;;;2.90;;
12976;SDS011;6553;48.412;9.514;2023-10-19T12:36:06;4.30;;;3.22;;
12976;SDS011;6553;48.412;9.514;2023-10-19T12:38:51;3.80;;;2.58;;
12976;SDS011;6553;48.412;9.514;2023-10-19T12:41:20;4.65;;;2.90;;
12976;SDS011;6553;48.412;9.514;2023-10-19T12:43:46;4.63;;;3.00;;
12976;SDS011;6553;48.412;9.514;2023-10-19T12:46:15;4.97;;;3.13;;
12976;SDS011;6553;48.412;9.514;2023-10-19T12:48:41;4.68;;;3.28;;
12976;SDS011;6553;48.412;9.514;2023-10-19T12:51:08;3.72;;;2.83;;
12976;SDS011;6553;48.412;9.514;2023-10-19T12:53:37;4.32;;;2.97;;
12976;SDS011;6553;48.412;9.514;2023-10-19T12:56:04;3.78;;;2.80;;
12976;SDS011;6553;48.412;9.514;2023-10-19T12:58:35;4.55;;;3.08;;
12976;SDS011;6553;48.412;9.514;2023-10-19T13:01:03;3.95;;;2.90;;
12976;SDS011;6553;48.412;9.514;2023-10-19T13:03:30;4.10;;;3.08;;
12976;SDS011;6553;48.412;9.514;2023-10-19T13:05:57;4.70;;;3.15;;
12976;SDS011;6553;48.412;9.514;2023-10-19T13:08:23;4.45;;;2.85;;
12976;SDS011;6553;48.412;9.514;2023-10-19T13:10:52;4.78;;;2.88;;
12976;SDS011;6553;48.412;9.514;2023-10-19T13:13:19;4.38;;;2.95;;
12976;SDS011;6553;48.412;9.514;2023-10-19T13:15:49;4.22;;;2.80;;
12976;SDS011;6553;48.412;9.514;2023-10-19T13:18:15;4.65;;;2.97;;
12976;SDS011;6553;48.412;9.514;2023-10-19T13:20:47;5.30;;;3.10;;
12976;SDS011;6553;48.412;9.514;2023-10-19T13:23:13;4.38;;;3.13;;
12976;SDS011;6553;48.412;9.514;2023-10-19T13:25:46;6.13;;;3.30;;
12976;SDS011;6553;48.412;9.514;2023-10-19T13:28:19;5.07;;;2.80;;
12976;SDS011;6553;48.412;9.514;2023-10-19T13:30:50;4.80;;;2.85;;
12976;SDS011;6553;48.412;9.514;2023-10-19T13:33:21;4.13;;;2.80;;
12976;SDS011;6553;48.412;9.514;2023-10-19T13:35:49;4.85;;;3.15;;
12976;SDS011;6553;48.412;9.514;2023-10-19T13:38:16;4.75;;;3.25;;
12976;SDS011;6553;48.412;9.514;2023-10-19T13:40:45;3.70;;;2.80;;
12976;SDS011;6553;48.412;9.514;2023-10-19T13:43:11;3.90;;;2.90;;
12976;SDS011;6553;48.412;9.514;2023-10-19T13:45:43;4.75;;;3.17;;
12976;SDS011;6553;48.412;9.514;2023-10-19T13:48:10;4.18;;;2.70;;
12976;SDS011;6553;48.412;9.514;2023-10-19T13:50:41;3.92;;;2.92;;
12976;SDS011;6553;48.412;9.514;2023-10-19T13:53:10;4.53;;;3.03;;
12976;SDS011;6553;48.412;9.514;2023-10-19T13:55:36;3.42;;;2.75;;
12976;SDS011;6553;48.412;9.514;2023-10-19T13:58:02;4.45;;;3.10;;
12976;SDS011;6553;48.412;9.514;2023-10-19T14:00:28;4.72;;;3.25;;
12976;SDS011;6553;48.412;9.514;2023-10-19T14:03:05;3.95;;;2.85;;
12976;SDS011;6553;48.412;9.514;2023-10-19T14:05:36;5.57;;;2.90;;
12976;SDS011;6553;48.412;9.514;2023-10-19T14:08:04;4.75;;;3.10;;
12976;SDS011;6553;48.412;9.514;2023-10-19T14:10:31;4.05;;;2.97;;
12976;SDS011;6553;48.412;9.514;2023-10-19T14:12:57;3.55;;;3.10;;
12976;SDS011;6553;48.412;9.514;2023-10-19T14:15:24;3.95;;;2.75;;
12976;SDS011;6553;48.412;9.514;2023-10-19T14:17:51;5.05;;;3.03;;
12976;SDS011;6553;48.412;9.514;2023-10-19T14:20:17;5.03;;;3.00;;
12976;SDS011;6553;48.412;9.514;2023-10-19T14:22:48;5.00;;;3.00;;
12976;SDS011;6553;48.412;9.514;2023-10-19T14:25:15;4.65;;;2.92;;
12976;SDS011;6553;48.412;9.514;2023-10-19T14:27:42;3.22;;;2.75;;
12976;SDS011;6553;48.412;9.514;2023-10-19T14:30:10;5.22;;;3.03;;
12976;SDS011;6553;48.412;9.514;2023-10-19T14:32:39;4.55;;;3.35;;
12976;SDS011;6553;48.412;9.514;2023-10-19T14:35:10;3.90;;;3.03;;
12976;SDS011;6553;48.412;9.514;2023-10-19T14:37:41;4.45;;;3.17;;
12976;SDS011;6553;48.412;9.514;2023-10-19T14:40:12;3.22;;;2.85;;
12976;SDS011;6553;48.412;9.514;2023-10-19T14:42:41;4.40;;;3.17;;
12976;SDS011;6553;48.412;9.514;2023-10-19T14:45:12;5.00;;;2.97;;
12976;SDS011;6553;48.412;9.514;2023-10-19T14:47:41;3.80;;;2.88;;
12976;SDS011;6553;48.412;9.514;2023-10-19T14:50:14;4.13;;;2.75;;
12976;SDS011;6553;48.412;9.514;2023-10-19T14:52:43;4.05;;;3.00;;
12976;SDS011;6553;48.412;9.514;2023-10-19T14:55:15;4.30;;;3.10;;
12976;SDS011;6553;48.412;9.514;2023-10-19T14:57:42;4.15;;;2.67;;
12976;SDS011;6553;48.412;9.514;2023-10-19T15:00:18;4.78;;;2.95;;
12976;SDS011;6553;48.412;9.514;2023-10-19T15:02:52;3.90;;;2.75;;
12976;SDS011;6553;48.412;9.514;2023-10-19T15:05:20;4.00;;;2.97;;
12976;SDS011;6553;48.412;9.514;2023-10-19T15:07:51;5.28;;;3.10;;
12976;SDS011;6553;48.412;9.514;2023-10-19T15:10:22;3.42;;;2.72;;
12976;SDS011;6553;48.412;9.514;2023-10-19T15:12:50;4.13;;;3.03;;
12976;SDS011;6553;48.412;9.514;2023-10-19T15:15:17;5.20;;;3.33;;
12976;SDS011;6553;48.412;9.514;2023-10-19T15:17:43;4.32;;;2.80;;
12976;SDS011;6553;48.412;9.514;2023-10-19T15:20:10;3.60;;;2.70;;
12976;SDS011;6553;48.412;9.514;2023-10-19T15:22:39;4.10;;;3.33;;
12976;SDS011;6553;48.412;9.514;2023-10-19T15:25:13;3.38;;;3.05;;
12976;SDS011;6553;48.412;9.514;2023-10-19T15:27:43;4.18;;;3.45;;
12976;SDS011;6553;48.412;9.514;2023-10-19T15:30:10;5.32;;;3.17;;
12976;SDS011;6553;48.412;9.514;2023-10-19T15:32:40;5.00;;;3.20;;
12976;SDS011;6553;48.412;9.514;2023-10-19T15:35:07;4.45;;;3.63;;
12976;SDS011;6553;48.412;9.514;2023-10-19T15:37:46;3.92;;;3.28;;